Time;durP1;ratioP1;P1;durP2;ratioP2;P2;SDS_P1;SDS_P2;PMS_P1;PMS_P2;Temp;Humidity;BMP_temperature;BMP_pressure;BME280_temperature;BME280_humidity;BME280_pressure;Samples;Min_cycle;Max_cycle;Signal;HPM_P1;HPM_P2
2022/01/01 00:01:13;;;;;;;27.43;15.87;;;;;;;;;;5100447;28;24876;-57
2022/01/01 00:03:38;;;;;;;20.33;11.40;;;;;;;;;;5097323;28;24416;-57
2022/01/01 00:06:03;;;;;;;15.68;9.43;;;;;;;;;;5101284;28;24418;-56
2022/01/01 00:08:28;;;;;;;11.47;9.30;;;;;;;;;;5104021;28;24422;-56
2022/01/01 00:10:54;;;;;;;8.48;7.32;;;;;;;;;;5101092;28;25173;-57
2022/01/01 00:13:19;;;;;;;9.80;8.40;;;;;;;;;;5097546;28;24382;-56
2022/01/01 00:15:45;;;;;;;8.60;7.90;;;;;;;;;;5098169;28;24975;-57
2022/01/01 00:18:10;;;;;;;8.50;7.80;;;;;;;;;;5102362;28;24418;-56
2022/01/01 00:20:35;;;;;;;8.48;7.68;;;;;;;;;;5103202;28;24408;-56
2022/01/01 00:23:00;;;;;;;7.13;6.43;;;;;;;;;;5099377;28;24953;-57
2022/01/01 00:25:25;;;;;;;7.90;6.60;;;;;;;;;;5099374;28;24397;-57
2022/01/01 00:27:51;;;;;;;7.13;6.43;;;;;;;;;;5099638;28;24433;-57
2022/01/01 00:30:17;;;;;;;7.10;6.40;;;;;;;;;;5103190;28;24410;-57
2022/01/01 00:32:42;;;;;;;7.10;6.10;;;;;;;;;;5100393;28;24878;-57
2022/01/01 00:35:07;;;;;;;6.50;5.90;;;;;;;;;;5103117;28;24417;-56
2022/01/01 00:37:32;;;;;;;7.30;6.60;;;;;;;;;;5097741;28;24424;-57
2022/01/01 00:39:57;;;;;;;6.68;6.05;;;;;;;;;;5099341;28;24957;-62
2022/01/01 00:42:23;;;;;;;6.90;6.20;;;;;;;;;;5102887;28;24433;-57
2022/01/01 00:44:49;;;;;;;6.95;6.35;;;;;;;;;;5101183;28;24410;-57
2022/01/01 00:47:14;;;;;;;14.52;9.82;;;;;;;;;;5102975;28;24395;-57
2022/01/01 00:49:39;;;;;;;8.23;7.00;;;;;;;;;;5097264;28;24433;-57
2022/01/01 00:52:04;;;;;;;13.95;10.18;;;;;;;;;;5098406;28;24729;-57
2022/01/01 00:54:30;;;;;;;9.60;8.17;;;;;;;;;;5100224;28;25059;-56
2022/01/01 00:56:55;;;;;;;8.07;7.27;;;;;;;;;;5101760;28;24424;-56
2022/01/01 00:59:20;;;;;;;7.90;7.10;;;;;;;;;;5102724;28;24377;-56
2022/01/01 01:01:46;;;;;;;7.00;6.10;;;;;;;;;;5100377;28;24479;-57
2022/01/01 01:04:12;;;;;;;8.20;7.32;;;;;;;;;;5096939;28;24491;-57
2022/01/01 01:06:37;;;;;;;8.60;7.43;;;;;;;;;;5098967;28;24393;-56
2022/01/01 01:09:02;;;;;;;8.80;7.55;;;;;;;;;;5102819;28;24516;-57
2022/01/01 01:11:28;;;;;;;8.10;7.30;;;;;;;;;;5102591;28;24975;-56
2022/01/01 01:13:58;;;;;;;6.50;5.90;;;;;;;;;;5100151;28;24433;-56
2022/01/01 01:16:25;;;;;;;7.10;6.50;;;;;;;;;;5102681;28;24386;-57
2022/01/01 01:18:51;;;;;;;7.60;6.90;;;;;;;;;;5099046;28;24412;-56
2022/01/01 01:21:17;;;;;;;7.13;6.43;;;;;;;;;;5097275;28;24933;-57
2022/01/01 01:23:42;;;;;;;6.40;5.90;;;;;;;;;;5098598;28;24959;-57
2022/01/01 01:26:08;;;;;;;7.30;6.60;;;;;;;;;;5102787;28;24430;-56
2022/01/01 01:28:33;;;;;;;6.22;5.63;;;;;;;;;;5102718;28;24449;-56
2022/01/01 01:30:58;;;;;;;6.37;5.53;;;;;;;;;;5100476;28;24382;-56
2022/01/01 01:33:24;;;;;;;5.70;5.20;;;;;;;;;;5099883;28;24484;-56
2022/01/01 01:35:49;;;;;;;5.80;5.30;;;;;;;;;;5096923;28;24493;-56
2022/01/01 01:38:14;;;;;;;5.30;4.80;;;;;;;;;;5102418;28;24425;-57
2022/01/01 01:40:39;;;;;;;6.07;5.53;;;;;;;;;;5100781;28;24385;-57
2022/01/01 01:43:09;;;;;;;5.28;4.88;;;;;;;;;;5101865;28;24493;-57
2022/01/01 01:45:35;;;;;;;6.40;5.80;;;;;;;;;;5100630;28;24382;-57
2022/01/01 01:48:01;;;;;;;5.57;5.07;;;;;;;;;;5099096;28;24526;-57
2022/01/01 01:50:26;;;;;;;6.30;5.70;;;;;;;;;;5104758;28;24390;-57
2022/01/01 01:52:53;;;;;;;5.50;5.03;;;;;;;;;;5103651;28;24402;-57
2022/01/01 01:55:18;;;;;;;6.20;5.60;;;;;;;;;;5104416;28;24904;-57
2022/01/01 01:57:44;;;;;;;5.70;5.10;;;;;;;;;;5101252;28;24455;-62
2022/01/01 02:00:28;;;;;;;6.20;5.67;;;;;;;;;;5101519;28;24429;-57
2022/01/01 02:02:53;;;;;;;6.40;5.80;;;;;;;;;;5103706;28;25300;-57
2022/01/01 02:05:19;;;;;;;6.97;6.27;;;;;;;;;;5104626;28;24393;-57
2022/01/01 02:07:44;;;;;;;6.73;5.83;;;;;;;;;;5100654;28;24401;-57
2022/01/01 02:10:09;;;;;;;6.60;6.00;;;;;;;;;;5106178;28;24408;-57
2022/01/01 02:12:34;;;;;;;6.40;5.80;;;;;;;;;;5105215;28;24432;-57
2022/01/01 02:17:27;;;;;;;6.20;5.60;;;;;;;;;;5106324;28;24482;-57
2022/01/01 02:20:05;;;;;;;7.20;6.50;;;;;;;;;;5100442;28;24768;-57
2022/01/01 02:22:40;;;;;;;7.35;6.65;;;;;;;;;;5099853;28;24421;-57
2022/01/01 02:25:06;;;;;;;7.20;6.40;;;;;;;;;;5104808;28;24987;-57
2022/01/01 02:27:31;;;;;;;7.10;6.40;;;;;;;;;;5105820;28;24396;-56
2022/01/01 02:29:57;;;;;;;6.37;5.77;;;;;;;;;;5101667;28;24398;-56
2022/01/01 02:32:22;;;;;;;5.75;5.25;;;;;;;;;;5096927;28;24410;-56
2022/01/01 02:34:47;;;;;;;6.00;5.50;;;;;;;;;;5105726;28;24446;-56
2022/01/01 02:37:12;;;;;;;6.40;5.80;;;;;;;;;;5105397;28;24397;-56
2022/01/01 02:39:37;;;;;;;5.83;5.33;;;;;;;;;;5103439;28;24394;-56
2022/01/01 02:42:06;;;;;;;5.60;5.00;;;;;;;;;;5099474;28;24933;-57
2022/01/01 02:44:31;;;;;;;6.40;5.80;;;;;;;;;;5101551;28;24771;-56
2022/01/01 02:46:56;;;;;;;6.10;5.37;;;;;;;;;;5105140;28;26053;-57
2022/01/01 02:49:22;;;;;;;6.30;5.80;;;;;;;;;;5105620;28;24433;-56
2022/01/01 02:51:47;;;;;;;5.80;5.20;;;;;;;;;;5101543;28;25186;-56
2022/01/01 02:54:12;;;;;;;5.87;5.27;;;;;;;;;;5101591;28;24394;-57
2022/01/01 02:56:38;;;;;;;5.90;5.40;;;;;;;;;;5105127;28;24829;-56
2022/01/01 02:59:03;;;;;;;5.73;5.23;;;;;;;;;;5101477;28;24425;-56
2022/01/01 03:01:29;;;;;;;5.90;5.40;;;;;;;;;;5101232;28;24394;-57
2022/01/01 03:03:54;;;;;;;6.37;5.77;;;;;;;;;;5098815;28;24425;-57
2022/01/01 03:06:20;;;;;;;6.40;5.70;;;;;;;;;;5103180;28;24783;-56
2022/01/01 03:08:46;;;;;;;6.60;6.00;;;;;;;;;;5103289;28;25028;-56
2022/01/01 03:11:11;;;;;;;6.22;5.63;;;;;;;;;;5104264;28;24417;-57
2022/01/01 03:13:37;;;;;;;6.10;5.50;;;;;;;;;;5100807;28;24439;-57
2022/01/01 03:16:02;;;;;;;6.80;5.73;;;;;;;;;;5101183;28;24440;-56
2022/01/01 03:18:27;;;;;;;8.10;5.57;;;;;;;;;;5101051;28;24400;-56
2022/01/01 03:20:52;;;;;;;5.77;5.27;;;;;;;;;;5104463;28;24999;-56
2022/01/01 03:23:17;;;;;;;6.50;5.70;;;;;;;;;;5102251;28;24421;-57
2022/01/01 03:25:42;;;;;;;5.18;4.68;;;;;;;;;;5098538;28;24428;-57
2022/01/01 03:28:08;;;;;;;5.30;4.80;;;;;;;;;;5100289;28;24422;-57
2022/01/01 03:30:33;;;;;;;5.47;4.97;;;;;;;;;;5097521;28;24501;-57
2022/01/01 03:32:58;;;;;;;6.00;5.40;;;;;;;;;;5083669;28;24413;-57
2022/01/01 03:35:23;;;;;;;5.20;4.70;;;;;;;;;;5089598;28;24606;-57
2022/01/01 03:37:48;;;;;;;5.80;5.30;;;;;;;;;;5100634;28;24497;-57
2022/01/01 03:40:13;;;;;;;5.43;4.93;;;;;;;;;;5098547;28;24385;-58
2022/01/01 03:42:39;;;;;;;5.57;5.07;;;;;;;;;;5100598;28;24469;-57
2022/01/01 03:45:05;;;;;;;5.20;4.70;;;;;;;;;;5104214;28;24378;-57
2022/01/01 03:47:30;;;;;;;5.80;5.30;;;;;;;;;;5103900;28;24398;-58
2022/01/01 03:49:56;;;;;;;4.90;4.40;;;;;;;;;;5102253;28;24466;-58
2022/01/01 03:52:21;;;;;;;5.63;5.03;;;;;;;;;;5098509;28;24465;-57
2022/01/01 03:54:46;;;;;;;5.10;4.40;;;;;;;;;;5100091;28;24995;-57
2022/01/01 03:57:11;;;;;;;5.45;4.90;;;;;;;;;;5104007;28;24458;-56
2022/01/01 03:59:36;;;;;;;5.57;5.07;;;;;;;;;;5103520;28;24398;-56
2022/01/01 04:02:03;;;;;;;5.20;4.70;;;;;;;;;;5101888;28;25449;-57
2022/01/01 04:04:28;;;;;;;4.77;4.37;;;;;;;;;;5099375;28;24430;-56
2022/01/01 04:06:54;;;;;;;5.43;4.93;;;;;;;;;;5098484;28;24454;-56
2022/01/01 04:09:19;;;;;;;4.80;4.40;;;;;;;;;;5097796;28;24419;-56
2022/01/01 04:11:45;;;;;;;5.00;4.50;;;;;;;;;;5101611;28;24983;-56
2022/01/01 04:14:13;;;;;;;4.68;4.20;;;;;;;;;;5103043;28;24524;-56
2022/01/01 04:16:38;;;;;;;5.10;4.70;;;;;;;;;;5101507;28;24962;-56
2022/01/01 04:19:03;;;;;;;4.80;4.40;;;;;;;;;;5103750;28;24398;-56
2022/01/01 04:21:29;;;;;;;4.68;4.13;;;;;;;;;;5100040;28;24417;-57
2022/01/01 04:23:54;;;;;;;4.87;4.47;;;;;;;;;;5097322;28;24409;-56
2022/01/01 04:26:19;;;;;;;4.88;4.45;;;;;;;;;;5103086;28;25135;-56
2022/01/01 04:28:44;;;;;;;4.80;4.30;;;;;;;;;;5101201;28;24413;-56
2022/01/01 04:31:09;;;;;;;4.30;3.97;;;;;;;;;;5102687;28;24409;-56
2022/01/01 04:33:34;;;;;;;4.50;4.10;;;;;;;;;;5100719;28;24929;-57
2022/01/01 04:36:00;;;;;;;4.57;4.18;;;;;;;;;;5097881;28;24744;-57
2022/01/01 04:38:39;;;;;;;4.80;4.30;;;;;;;;;;5102908;28;24382;-57
2022/01/01 04:41:05;;;;;;;5.53;4.13;;;;;;;;;;5102557;28;24911;-56
2022/01/01 04:43:30;;;;;;;4.30;3.90;;;;;;;;;;5102901;28;24401;-56
2022/01/01 04:45:55;;;;;;;4.57;4.17;;;;;;;;;;5099530;28;24432;-57
2022/01/01 04:48:21;;;;;;;4.10;3.80;;;;;;;;;;5097503;28;24883;-57
2022/01/01 04:50:46;;;;;;;4.45;4.05;;;;;;;;;;5101326;28;24933;-57
2022/01/01 04:53:15;;;;;;;4.60;4.20;;;;;;;;;;5102984;28;24396;-56
2022/01/01 04:55:41;;;;;;;5.53;4.30;;;;;;;;;;5101055;28;24531;-57
2022/01/01 04:58:06;;;;;;;4.83;4.00;;;;;;;;;;5096996;28;24413;-57
2022/01/01 05:00:31;;;;;;;4.63;4.22;;;;;;;;;;5099378;28;24405;-56
2022/01/01 05:02:56;;;;;;;4.20;3.90;;;;;;;;;;5097085;28;24444;-57
2022/01/01 05:05:21;;;;;;;4.40;4.00;;;;;;;;;;5098816;28;24435;-56
2022/01/01 05:07:46;;;;;;;4.00;3.60;;;;;;;;;;5101083;28;24969;-57
2022/01/01 05:10:12;;;;;;;4.32;3.90;;;;;;;;;;5102330;28;24406;-56
2022/01/01 05:12:37;;;;;;;3.93;3.63;;;;;;;;;;5098775;28;24393;-57
2022/01/01 05:15:02;;;;;;;3.90;3.50;;;;;;;;;;5099485;28;24385;-57
2022/01/01 05:17:27;;;;;;;4.47;4.07;;;;;;;;;;5100916;28;24466;-57
2022/01/01 05:19:52;;;;;;;4.10;3.80;;;;;;;;;;5103059;28;24994;-57
2022/01/01 05:22:18;;;;;;;3.70;3.47;;;;;;;;;;5103428;28;24405;-57
2022/01/01 05:24:43;;;;;;;4.25;3.85;;;;;;;;;;5104874;28;24408;-57
2022/01/01 05:27:08;;;;;;;4.10;3.80;;;;;;;;;;5103103;28;24799;-57
2022/01/01 05:29:33;;;;;;;4.25;3.90;;;;;;;;;;5102917;28;24425;-56
2022/01/01 05:31:59;;;;;;;4.40;4.00;;;;;;;;;;5106794;28;24394;-58
2022/01/01 05:34:24;;;;;;;4.60;4.20;;;;;;;;;;5106489;28;24747;-57
2022/01/01 05:36:49;;;;;;;4.13;3.73;;;;;;;;;;5103032;28;24425;-56
2022/01/01 05:39:14;;;;;;;4.40;4.03;;;;;;;;;;5102504;28;24381;-57
2022/01/01 05:41:39;;;;;;;4.13;3.73;;;;;;;;;;5103243;28;24413;-56
2022/01/01 05:44:05;;;;;;;4.40;4.00;;;;;;;;;;5106450;28;24520;-57
2022/01/01 05:46:31;;;;;;;4.30;4.00;;;;;;;;;;5106395;28;24958;-57
2022/01/01 05:48:57;;;;;;;4.40;4.00;;;;;;;;;;5104576;28;25095;-57
2022/01/01 05:51:22;;;;;;;4.70;4.30;;;;;;;;;;5104506;28;24481;-56
2022/01/01 05:53:47;;;;;;;4.43;4.03;;;;;;;;;;5100689;28;24393;-57
2022/01/01 05:56:12;;;;;;;4.60;4.20;;;;;;;;;;5106403;28;24414;-56
2022/01/01 05:58:37;;;;;;;4.40;4.03;;;;;;;;;;5104294;28;24385;-56
2022/01/01 06:01:02;;;;;;;4.80;4.40;;;;;;;;;;5105822;28;24443;-57
2022/01/01 06:03:27;;;;;;;4.07;3.67;;;;;;;;;;5106192;28;24780;-57
2022/01/01 06:05:52;;;;;;;4.10;3.80;;;;;;;;;;5100429;28;25295;-57
2022/01/01 06:08:18;;;;;;;3.80;3.50;;;;;;;;;;5102370;28;24520;-57
2022/01/01 06:10:43;;;;;;;4.17;3.70;;;;;;;;;;5104461;28;24386;-57
2022/01/01 06:13:08;;;;;;;4.25;3.85;;;;;;;;;;5105397;28;24496;-57
2022/01/01 06:15:34;;;;;;;4.77;4.27;;;;;;;;;;5106260;28;24405;-57
2022/01/01 06:17:59;;;;;;;4.45;4.05;;;;;;;;;;5104550;28;24827;-56
2022/01/01 06:20:24;;;;;;;4.10;3.80;;;;;;;;;;5102434;28;24397;-56
2022/01/01 06:22:49;;;;;;;4.10;3.80;;;;;;;;;;5100366;28;24466;-56
2022/01/01 06:25:15;;;;;;;4.17;3.80;;;;;;;;;;5103618;28;24392;-56
2022/01/01 06:27:40;;;;;;;4.70;3.80;;;;;;;;;;5103944;28;24493;-56
2022/01/01 06:30:05;;;;;;;4.40;4.00;;;;;;;;;;5106079;28;24402;-56
2022/01/01 06:32:31;;;;;;;3.53;3.22;;;;;;;;;;5102821;28;24421;-56
2022/01/01 06:34:56;;;;;;;3.80;3.50;;;;;;;;;;5100236;28;24385;-57
2022/01/01 06:37:22;;;;;;;4.40;3.60;;;;;;;;;;5103668;28;24465;-56
2022/01/01 06:39:47;;;;;;;3.97;3.60;;;;;;;;;;5103832;28;24707;-56
2022/01/01 06:42:12;;;;;;;4.10;3.80;;;;;;;;;;5105038;28;24433;-56
2022/01/01 06:44:37;;;;;;;3.80;3.40;;;;;;;;;;5103564;28;24467;-57
2022/01/01 06:47:02;;;;;;;3.87;3.53;;;;;;;;;;5099694;28;24926;-56
2022/01/01 06:49:27;;;;;;;4.60;3.80;;;;;;;;;;5099997;28;24582;-57
2022/01/01 06:51:53;;;;;;;3.90;3.50;;;;;;;;;;5105318;28;24398;-57
2022/01/01 06:54:18;;;;;;;3.40;3.10;;;;;;;;;;5104789;28;24418;-56
2022/01/01 06:56:43;;;;;;;4.38;3.97;;;;;;;;;;5103678;28;24477;-56
2022/01/01 06:59:09;;;;;;;3.60;3.30;;;;;;;;;;5101358;28;24418;-56
2022/01/01 07:01:35;;;;;;;3.65;3.35;;;;;;;;;;5101029;28;24394;-57
2022/01/01 07:04:00;;;;;;;3.73;3.43;;;;;;;;;;5105414;28;24482;-57
2022/01/01 07:06:25;;;;;;;3.83;3.50;;;;;;;;;;5104703;28;24517;-56
2022/01/01 07:08:50;;;;;;;3.50;3.20;;;;;;;;;;5102930;28;24414;-57
2022/01/01 07:11:15;;;;;;;3.35;3.05;;;;;;;;;;5102714;28;24417;-56
2022/01/01 07:13:40;;;;;;;3.00;2.80;;;;;;;;;;5101149;28;24493;-56
2022/01/01 07:16:06;;;;;;;3.13;2.92;;;;;;;;;;5102817;28;24393;-57
2022/01/01 07:18:31;;;;;;;3.40;3.10;;;;;;;;;;5103254;28;25004;-56
2022/01/01 07:20:56;;;;;;;3.50;3.20;;;;;;;;;;5104479;28;24390;-56
2022/01/01 07:23:21;;;;;;;2.90;2.70;;;;;;;;;;5104352;28;24417;-57
2022/01/01 07:25:46;;;;;;;3.40;2.70;;;;;;;;;;5096509;28;24418;-57
2022/01/01 07:28:14;;;;;;;3.40;3.10;;;;;;;;;;5079818;28;24755;-57
2022/01/01 07:30:39;;;;;;;3.63;3.00;;;;;;;;;;5082654;28;25174;-57
2022/01/01 07:33:04;;;;;;;3.40;3.10;;;;;;;;;;5084545;28;24934;-57
2022/01/01 07:35:30;;;;;;;4.38;2.78;;;;;;;;;;5091158;28;24402;-57
2022/01/01 07:37:55;;;;;;;3.17;2.50;;;;;;;;;;5102587;28;24400;-57
2022/01/01 07:40:20;;;;;;;3.80;3.00;;;;;;;;;;5100865;28;24472;-56
2022/01/01 07:42:46;;;;;;;3.63;2.63;;;;;;;;;;5098851;28;24805;-56
2022/01/01 07:45:12;;;;;;;2.90;2.70;;;;;;;;;;5103873;28;24394;-59
2022/01/01 07:47:37;;;;;;;3.00;2.70;;;;;;;;;;5101814;28;24812;-57
2022/01/01 07:50:06;;;;;;;2.95;2.65;;;;;;;;;;5104065;28;24426;-56
2022/01/01 07:52:32;;;;;;;3.10;2.80;;;;;;;;;;5101959;28;25049;-57
2022/01/01 07:54:57;;;;;;;2.93;2.60;;;;;;;;;;5098747;28;24398;-56
2022/01/01 07:57:22;;;;;;;2.78;2.58;;;;;;;;;;5101585;28;24509;-56
2022/01/01 07:59:47;;;;;;;2.90;2.60;;;;;;;;;;5102313;28;24441;-57
2022/01/01 08:02:12;;;;;;;2.95;2.65;;;;;;;;;;5100252;28;24435;-57
2022/01/01 08:04:37;;;;;;;3.00;2.80;;;;;;;;;;5098284;28;24417;-56
2022/01/01 08:07:02;;;;;;;3.22;2.65;;;;;;;;;;5099911;28;24418;-56
2022/01/01 08:09:28;;;;;;;2.83;2.40;;;;;;;;;;5103420;28;24474;-56
2022/01/01 08:11:54;;;;;;;3.50;2.80;;;;;;;;;;5102080;28;24697;-56
2022/01/01 08:14:19;;;;;;;3.80;2.70;;;;;;;;;;5103875;28;24472;-56
2022/01/01 08:16:58;;;;;;;3.40;3.10;;;;;;;;;;5102447;28;24492;-56
2022/01/01 08:19:23;;;;;;;3.33;2.60;;;;;;;;;;5099837;28;24420;-56
2022/01/01 08:21:48;;;;;;;3.00;2.60;;;;;;;;;;5097852;28;24413;-56
2022/01/01 08:24:13;;;;;;;2.70;2.50;;;;;;;;;;5101530;28;24440;-56
2022/01/01 08:26:38;;;;;;;2.70;2.50;;;;;;;;;;5103491;28;24398;-56
2022/01/01 08:29:04;;;;;;;2.60;2.40;;;;;;;;;;5101814;28;24458;-56
2022/01/01 08:31:29;;;;;;;2.90;2.70;;;;;;;;;;5103243;28;24602;-56
2022/01/01 08:33:54;;;;;;;2.83;2.60;;;;;;;;;;5097953;28;24382;-56
2022/01/01 08:36:19;;;;;;;3.38;2.70;;;;;;;;;;5099141;28;24494;-56
2022/01/01 08:38:44;;;;;;;2.80;2.50;;;;;;;;;;5102315;28;24481;-57
2022/01/01 08:41:09;;;;;;;3.10;2.70;;;;;;;;;;5103605;28;24504;-56
2022/01/01 08:43:35;;;;;;;2.70;2.50;;;;;;;;;;5099405;28;25002;-56
2022/01/01 08:46:00;;;;;;;2.50;2.30;;;;;;;;;;5099936;28;24950;-56
2022/01/01 08:48:25;;;;;;;2.60;2.40;;;;;;;;;;5103247;28;24764;-57
2022/01/01 08:50:50;;;;;;;2.83;2.53;;;;;;;;;;5101213;28;25215;-56
2022/01/01 08:53:16;;;;;;;3.10;2.80;;;;;;;;;;5103293;28;24400;-56
2022/01/01 08:55:41;;;;;;;3.25;2.55;;;;;;;;;;5100800;28;24871;-56
2022/01/01 08:58:06;;;;;;;3.10;2.50;;;;;;;;;;5098681;28;24393;-57
2022/01/01 09:00:31;;;;;;;2.80;2.60;;;;;;;;;;5099571;28;24439;-56
2022/01/01 09:02:56;;;;;;;3.28;2.30;;;;;;;;;;5102595;28;25058;-56
2022/01/01 09:05:22;;;;;;;2.88;2.60;;;;;;;;;;5102354;28;24759;-56
2022/01/01 09:07:48;;;;;;;2.63;2.40;;;;;;;;;;5101444;28;24496;-56
2022/01/01 09:10:15;;;;;;;2.60;2.40;;;;;;;;;;5095587;28;24493;-56
2022/01/01 09:12:40;;;;;;;3.70;2.60;;;;;;;;;;5098862;28;24428;-57
2022/01/01 09:15:05;;;;;;;2.40;2.20;;;;;;;;;;5101355;28;24432;-56
2022/01/01 09:17:30;;;;;;;2.57;2.10;;;;;;;;;;5102363;28;24414;-56
2022/01/01 09:19:55;;;;;;;3.20;2.37;;;;;;;;;;5100750;28;24528;-56
2022/01/01 09:22:21;;;;;;;2.40;2.20;;;;;;;;;;5102454;28;24401;-57
2022/01/01 09:24:46;;;;;;;2.60;2.40;;;;;;;;;;5078482;28;24418;-56
2022/01/01 09:27:11;;;;;;;3.45;2.50;;;;;;;;;;5077060;28;24475;-55
2022/01/01 09:29:36;;;;;;;2.83;2.30;;;;;;;;;;5078392;28;24971;-56
2022/01/01 09:32:03;;;;;;;2.40;2.20;;;;;;;;;;5097199;28;24410;-57
2022/01/01 09:34:28;;;;;;;2.47;2.28;;;;;;;;;;5102757;28;24436;-57
2022/01/01 09:36:54;;;;;;;2.60;2.40;;;;;;;;;;5100328;28;24748;-56
2022/01/01 09:39:19;;;;;;;2.25;2.05;;;;;;;;;;5097250;28;24410;-57
2022/01/01 09:41:45;;;;;;;2.50;2.30;;;;;;;;;;5096928;28;24843;-57
2022/01/01 09:44:11;;;;;;;2.70;2.20;;;;;;;;;;5102625;28;24450;-56
2022/01/01 09:46:37;;;;;;;2.42;2.20;;;;;;;;;;5100553;28;24390;-56
2022/01/01 09:49:02;;;;;;;3.30;2.30;;;;;;;;;;5102310;28;25016;-58
2022/01/01 09:51:28;;;;;;;2.60;2.40;;;;;;;;;;5100112;28;24413;-57
2022/01/01 09:53:53;;;;;;;2.40;2.20;;;;;;;;;;5096959;28;24425;-57
2022/01/01 09:56:18;;;;;;;3.03;2.40;;;;;;;;;;5100605;28;24389;-56
2022/01/01 09:58:43;;;;;;;4.10;2.30;;;;;;;;;;5100246;28;24847;-57
2022/01/01 10:01:08;;;;;;;3.27;2.63;;;;;;;;;;5102297;28;24430;-57
2022/01/01 10:03:41;;;;;;;2.90;2.70;;;;;;;;;;5101740;28;25006;-56
2022/01/01 10:06:12;;;;;;;3.40;3.10;;;;;;;;;;5100017;28;24566;-57
2022/01/01 10:08:37;;;;;;;2.60;2.40;;;;;;;;;;5100296;28;24466;-58
2022/01/01 10:11:03;;;;;;;3.10;2.80;;;;;;;;;;5102500;28;24398;-58
2022/01/01 10:13:38;;;;;;;3.17;2.70;;;;;;;;;;5103549;28;24454;-56
2022/01/01 10:16:05;;;;;;;2.83;2.63;;;;;;;;;;5105750;28;25208;-56
2022/01/01 10:18:31;;;;;;;3.00;2.40;;;;;;;;;;5105795;28;24414;-56
2022/01/01 10:21:01;;;;;;;2.97;2.70;;;;;;;;;;5100327;28;24728;-56
2022/01/01 10:23:29;;;;;;;4.95;2.20;;;;;;;;;;5096767;28;24413;-56
2022/01/01 10:28:52;;;;;;;2.60;2.40;;;;;;;;;;5104301;28;24566;-56
2022/01/01 10:31:17;;;;;;;2.80;2.60;;;;;;;;;;5104216;28;24966;-57
2022/01/01 10:33:46;;;;;;;2.60;2.30;;;;;;;;;;5102030;28;24406;-56
2022/01/01 10:36:13;;;;;;;3.50;2.60;;;;;;;;;;5102321;28;24991;-56
2022/01/01 10:38:38;;;;;;;3.55;2.80;;;;;;;;;;5104012;28;24516;-56
2022/01/01 10:41:05;;;;;;;2.30;2.10;;;;;;;;;;5101894;28;24562;-57
2022/01/01 10:43:35;;;;;;;3.22;2.63;;;;;;;;;;5101035;28;24405;-57
2022/01/01 10:46:02;;;;;;;3.20;2.63;;;;;;;;;;5106113;28;24873;-56
2022/01/01 10:48:40;;;;;;;2.67;2.47;;;;;;;;;;5105501;28;24451;-56
2022/01/01 10:51:09;;;;;;;3.70;2.65;;;;;;;;;;5101042;28;24397;-57
2022/01/01 10:53:35;;;;;;;4.43;3.20;;;;;;;;;;5101398;28;24432;-57
2022/01/01 10:56:01;;;;;;;3.10;2.40;;;;;;;;;;5103895;28;24947;-57
2022/01/01 10:58:34;;;;;;;3.30;3.00;;;;;;;;;;5105368;28;24401;-56
2022/01/01 11:01:01;;;;;;;3.95;2.50;;;;;;;;;;5103878;28;24398;-57
2022/01/01 11:03:28;;;;;;;4.00;3.00;;;;;;;;;;5103228;28;24466;-57
2022/01/01 11:06:03;;;;;;;3.60;3.30;;;;;;;;;;5099248;28;24445;-56
2022/01/01 11:08:28;;;;;;;5.10;3.60;;;;;;;;;;5099782;28;24501;-57
2022/01/01 11:10:53;;;;;;;3.63;3.33;;;;;;;;;;5087051;28;24493;-56
2022/01/01 11:13:19;;;;;;;3.20;2.80;;;;;;;;;;5105225;28;24496;-57
2022/01/01 11:15:44;;;;;;;2.80;2.50;;;;;;;;;;5104749;28;24445;-56
2022/01/01 11:18:09;;;;;;;2.90;2.70;;;;;;;;;;5101578;28;24417;-57
2022/01/01 11:20:35;;;;;;;4.07;3.20;;;;;;;;;;5096056;28;24395;-56
2022/01/01 11:23:02;;;;;;;3.42;2.80;;;;;;;;;;5090536;28;24994;-56
2022/01/01 11:25:27;;;;;;;3.42;2.90;;;;;;;;;;5099080;28;24409;-57
2022/01/01 11:27:53;;;;;;;3.30;3.00;;;;;;;;;;5105136;28;24409;-57
2022/01/01 11:30:19;;;;;;;3.10;2.80;;;;;;;;;;5105106;28;24962;-57
2022/01/01 11:32:48;;;;;;;3.07;2.70;;;;;;;;;;5102644;28;24404;-58
2022/01/01 11:35:19;;;;;;;2.70;2.50;;;;;;;;;;5101133;28;24518;-56
2022/01/01 11:37:46;;;;;;;3.25;2.95;;;;;;;;;;5100168;28;24702;-57
2022/01/01 11:40:11;;;;;;;3.10;2.80;;;;;;;;;;5104704;28;24991;-56
2022/01/01 11:42:45;;;;;;;3.50;3.20;;;;;;;;;;5104600;28;24405;-56
2022/01/01 11:45:12;;;;;;;6.60;3.97;;;;;;;;;;5101265;28;24429;-56
2022/01/01 11:47:37;;;;;;;4.13;3.42;;;;;;;;;;5100249;28;24422;-57
2022/01/01 11:50:04;;;;;;;6.93;4.40;;;;;;;;;;5102690;28;24524;-57
2022/01/01 11:52:37;;;;;;;5.45;3.80;;;;;;;;;;5104424;28;24528;-57
2022/01/01 11:55:04;;;;;;;4.60;3.55;;;;;;;;;;5104523;28;24405;-57
2022/01/01 11:57:30;;;;;;;3.83;3.08;;;;;;;;;;5103619;28;24462;-57
2022/01/01 12:00:00;;;;;;;3.40;3.00;;;;;;;;;;5098794;28;24450;-56
2022/01/01 12:02:26;;;;;;;3.30;3.00;;;;;;;;;;5099886;28;24398;-56
2022/01/01 12:04:53;;;;;;;3.10;2.80;;;;;;;;;;5102121;28;24516;-57
2022/01/01 12:07:19;;;;;;;3.67;2.97;;;;;;;;;;5103879;28;24416;-56
2022/01/01 12:10:02;;;;;;;3.15;2.85;;;;;;;;;;5098433;28;24424;-57
2022/01/01 12:12:39;;;;;;;3.90;2.80;;;;;;;;;;5098461;28;24798;-57
2022/01/01 12:15:07;;;;;;;2.80;2.60;;;;;;;;;;5104133;28;24386;-57
2022/01/01 12:17:45;;;;;;;3.90;2.80;;;;;;;;;;5103529;28;24776;-57
2022/01/01 12:20:10;;;;;;;4.95;2.75;;;;;;;;;;5086902;28;24483;-57
2022/01/01 12:22:37;;;;;;;3.80;2.90;;;;;;;;;;5086324;28;24462;-57
2022/01/01 12:25:02;;;;;;;3.65;3.30;;;;;;;;;;5100499;28;24405;-57
2022/01/01 12:27:39;;;;;;;3.77;3.23;;;;;;;;;;5103783;28;24477;-57
2022/01/01 12:30:05;;;;;;;4.10;3.00;;;;;;;;;;5103308;28;24434;-56
2022/01/01 12:32:35;;;;;;;4.45;3.53;;;;;;;;;;5101872;28;24386;-57
2022/01/01 12:35:15;;;;;;;5.57;3.50;;;;;;;;;;5098518;28;24402;-57
2022/01/01 12:37:40;;;;;;;5.05;3.33;;;;;;;;;;5101020;28;24402;-57
2022/01/01 12:40:05;;;;;;;4.45;3.00;;;;;;;;;;5103586;28;24475;-57
2022/01/01 12:42:34;;;;;;;4.20;2.90;;;;;;;;;;5103742;28;24409;-57
2022/01/01 12:45:00;;;;;;;5.55;3.20;;;;;;;;;;5097900;28;24496;-57
2022/01/01 12:47:26;;;;;;;4.30;3.90;;;;;;;;;;5097887;28;24449;-57
2022/01/01 12:49:52;;;;;;;4.67;3.50;;;;;;;;;;5100785;28;25042;-57
2022/01/01 12:52:23;;;;;;;5.60;3.80;;;;;;;;;;5103020;28;24454;-58
2022/01/01 12:54:52;;;;;;;4.53;3.63;;;;;;;;;;5101140;28;25197;-59
2022/01/01 12:57:18;;;;;;;4.65;3.75;;;;;;;;;;5098311;28;24389;-57
2022/01/01 12:59:45;;;;;;;5.15;3.55;;;;;;;;;;5099630;28;24447;-56
2022/01/01 13:02:10;;;;;;;5.20;3.90;;;;;;;;;;5102925;28;24546;-57
2022/01/01 13:04:35;;;;;;;3.90;3.50;;;;;;;;;;5102869;28;24961;-57
2022/01/01 13:07:02;;;;;;;4.03;3.50;;;;;;;;;;5101053;28;24401;-56
2022/01/01 13:09:28;;;;;;;6.57;4.38;;;;;;;;;;5097677;28;24470;-56
2022/01/01 13:12:01;;;;;;;4.50;3.65;;;;;;;;;;5100952;28;24455;-57
2022/01/01 13:14:28;;;;;;;4.70;3.40;;;;;;;;;;5101348;28;24825;-56
2022/01/01 13:16:53;;;;;;;4.28;3.10;;;;;;;;;;5098070;28;24473;-57
2022/01/01 13:19:18;;;;;;;6.10;3.97;;;;;;;;;;5083378;28;24493;-57
2022/01/01 13:21:43;;;;;;;4.40;3.65;;;;;;;;;;5086563;28;24485;-57
2022/01/01 13:24:10;;;;;;;4.80;3.90;;;;;;;;;;5103685;28;24763;-56
2022/01/01 13:26:35;;;;;;;4.78;3.60;;;;;;;;;;5103019;28;24390;-56
2022/01/01 13:29:00;;;;;;;4.73;3.70;;;;;;;;;;5096665;28;24501;-57
2022/01/01 13:31:26;;;;;;;4.50;3.97;;;;;;;;;;5097788;28;24756;-56
2022/01/01 13:33:52;;;;;;;4.10;3.58;;;;;;;;;;5100775;28;24410;-56
2022/01/01 13:36:27;;;;;;;4.38;3.55;;;;;;;;;;5102815;28;24546;-57
2022/01/01 13:38:53;;;;;;;4.93;4.00;;;;;;;;;;5100513;28;24438;-57
2022/01/01 13:41:18;;;;;;;6.00;4.70;;;;;;;;;;5103171;28;24744;-57
2022/01/01 13:43:43;;;;;;;5.88;4.10;;;;;;;;;;5102999;28;24985;-57
2022/01/01 13:46:13;;;;;;;5.78;3.97;;;;;;;;;;5103467;28;24394;-57
2022/01/01 13:48:41;;;;;;;5.10;4.10;;;;;;;;;;5104407;28;24466;-57
2022/01/01 13:51:07;;;;;;;5.13;4.00;;;;;;;;;;5107094;28;24401;-57
2022/01/01 13:53:32;;;;;;;5.32;4.03;;;;;;;;;;5106754;28;24450;-56
2022/01/01 13:56:02;;;;;;;5.13;4.30;;;;;;;;;;5104453;28;24503;-57
2022/01/01 13:58:27;;;;;;;7.25;4.55;;;;;;;;;;5101198;28;25157;-56
2022/01/01 14:00:54;;;;;;;5.77;4.57;;;;;;;;;;5103348;28;24406;-56
2022/01/01 14:03:23;;;;;;;5.65;4.65;;;;;;;;;;5106542;28;24429;-56
2022/01/01 14:05:49;;;;;;;5.00;4.00;;;;;;;;;;5104407;28;24430;-57
2022/01/01 14:08:16;;;;;;;5.20;4.37;;;;;;;;;;5104120;28;24417;-57
2022/01/01 14:10:41;;;;;;;4.95;4.00;;;;;;;;;;5101179;28;24394;-56
2022/01/01 14:13:06;;;;;;;4.25;3.70;;;;;;;;;;5104538;28;24396;-56
2022/01/01 14:15:32;;;;;;;6.03;4.00;;;;;;;;;;5104637;28;25071;-57
2022/01/01 14:18:09;;;;;;;6.83;4.60;;;;;;;;;;5090110;28;24890;-56
2022/01/01 14:20:35;;;;;;;4.20;3.80;;;;;;;;;;5086571;28;24924;-57
2022/01/01 14:23:02;;;;;;;5.27;4.00;;;;;;;;;;5093997;28;24425;-56
2022/01/01 14:25:29;;;;;;;4.03;3.63;;;;;;;;;;5100850;28;24952;-56
2022/01/01 14:27:58;;;;;;;4.63;4.22;;;;;;;;;;5101880;28;24406;-56
2022/01/01 14:30:24;;;;;;;6.10;4.15;;;;;;;;;;5106432;28;24408;-57
2022/01/01 14:32:49;;;;;;;5.90;4.50;;;;;;;;;;5101873;28;24505;-56
2022/01/01 14:35:14;;;;;;;6.32;4.65;;;;;;;;;;5102399;28;24396;-56
2022/01/01 14:37:40;;;;;;;4.88;4.40;;;;;;;;;;5104332;28;24398;-57
2022/01/01 14:40:06;;;;;;;5.10;4.60;;;;;;;;;;5106113;28;24413;-56
2022/01/01 14:42:31;;;;;;;5.60;4.40;;;;;;;;;;5105844;28;24406;-57